Terminal Aerodrome Forecast
Issued by NWS Spokane, WA

Home | Current Version | Previous Version | Text Only | Print | Product List | Glossary On
Versions: 1 2 3 4 5 6 7 8 9 10 11 12 13 14 15 16 17 18 19 20 21 22 23 24 25 26 27 28 29 30 31 32 33 34
000
FTUS46 KOTX 251739
TAFGEG
TAF
KGEG 251739Z 2518/2618 21005KT P6SM SKC
     FM260200 23004KT P6SM BKN080
     FM260900 22004KT 6SM BR BKN005=

USA.gov is the U.S. government's official web portal to all federal, state and local government web resources and services.